< Typhoon 195110 1951 Season Typhoon 195112 >
Typhoon 195111 (MARGE)
General InformationTrack Information on Google Maps || Disaster Info.ResourceGoogle EarthGE AnimationAtom FeedGeoJSON
Detalied Best Track (Time Zone = UTC)
Year Month Day Hour Lat. Long. Pressure (hPa) Wind (kt) Class Image Chart
1951 8 10 12 10.8 147.4 987 0 2 -- Chart
1951 8 10 18 11.8 146.5 985 0 2 -- Chart
1951 8 11 00 12.5 145.5 982 0 9 -- Chart
1951 8 11 06 13.0 145.0 981 0 9 -- Chart
1951 8 11 12 13.2 144.3 981 0 9 -- Chart
1951 8 11 18 13.4 143.5 982 0 9 -- Chart
1951 8 12 00 13.5 142.7 982 0 9 -- Chart
1951 8 12 06 13.5 142.1 983 0 9 -- Chart
1951 8 12 12 13.4 141.5 979 0 9 -- Chart
1951 8 12 18 13.4 140.8 972 0 9 -- Chart
1951 8 13 00 13.4 140.2 970 0 9 -- Chart
1951 8 13 06 13.6 139.4 967 0 9 -- Chart
1951 8 13 12 14.3 138.9 957 0 9 -- Chart
1951 8 13 18 15.3 138.8 942 0 9 -- Chart
1951 8 14 00 16.1 138.7 928 0 9 -- Chart
1951 8 14 06 17.1 138.3 920 0 9 -- Chart
1951 8 14 12 18.1 137.8 916 0 9 -- Chart
1951 8 14 18 18.9 137.0 914 0 9 -- Chart
1951 8 15 00 19.8 136.0 910 0 9 -- Chart
1951 8 15 06 20.7 134.5 887 0 9 -- Chart
1951 8 15 12 21.0 133.5 886 0 9 -- Chart
1951 8 15 18 21.2 132.7 900 0 9 -- Chart
1951 8 16 00 21.2 132.0 916 0 9 -- Chart
1951 8 16 06 20.7 131.3 925 0 9 -- Chart
1951 8 16 12 21.8 131.2 920 0 9 -- Chart
1951 8 16 18 22.7 131.1 919 0 9 -- Chart
1951 8 17 00 23.5 130.7 923 0 9 -- Chart
1951 8 17 06 24.2 130.2 930 0 9 -- Chart
1951 8 17 12 24.9 129.5 933 0 9 -- Chart
1951 8 17 18 25.8 128.8 935 0 9 -- Chart
1951 8 18 00 26.7 128.7 935 0 9 -- Chart
1951 8 18 06 27.4 128.5 935 0 9 -- Chart
1951 8 18 12 27.8 128.3 934 0 9 -- Chart
1951 8 18 18 28.0 128.2 934 0 9 -- Chart
1951 8 19 00 28.1 128.1 935 0 9 -- Chart
1951 8 19 06 28.7 127.6 937 0 9 -- Chart
1951 8 19 12 29.2 127.2 941 0 9 -- Chart
1951 8 19 18 29.6 126.5 950 0 9 -- Chart
1951 8 20 00 30.0 125.9 950 0 9 -- Chart
1951 8 20 06 30.6 125.0 944 0 9 -- Chart
1951 8 20 12 30.7 124.9 941 0 9 -- Chart
1951 8 20 18 30.8 124.9 941 0 9 -- Chart
1951 8 21 00 30.9 124.8 943 0 9 -- Chart
1951 8 21 06 31.2 124.2 947 0 9 -- Chart
1951 8 21 12 31.5 123.6 954 0 9 -- Chart
1951 8 21 18 32.0 123.5 960 0 9 -- Chart
1951 8 22 00 32.5 123.7 966 0 9 -- Chart
1951 8 22 06 33.2 124.0 973 0 9 -- Chart
1951 8 22 12 33.7 124.4 978 0 9 -- Chart
1951 8 22 18 34.3 125.0 983 0 9 -- Chart
1951 8 23 00 35.3 126.3 985 0 9 -- Chart
1951 8 23 06 37.8 127.0 985 0 9 -- Chart
1951 8 23 12 40.0 127.5 985 0 9 -- Chart
1951 8 23 18 41.5 129.0 985 0 9 -- Chart
1951 8 24 00 43.0 130.1 985 0 9 -- Chart
1951 8 24 06 45.0 131.0 987 0 9 -- Chart
1951 8 24 12 45.5 132.7 990 0 9 -- Chart
Japan Meteorological Agency Best Track Data | Correction Date : 1989-06-01
< Typhoon 195110 1951 Season Typhoon 195112 >

Help